sensor_id;sensor_type;location;lat;lon;timestamp;P1;durP1;ratioP1;P2;durP2;ratioP2
67352;SDS011;54238;52.278;21.056;2023-05-10T00:00:59;16.60;;;6.50;;
67352;SDS011;54238;52.278;21.056;2023-05-10T00:03:29;15.50;;;5.80;;
67352;SDS011;54238;52.278;21.056;2023-05-10T00:06:01;12.60;;;5.90;;
67352;SDS011;54238;52.278;21.056;2023-05-10T00:08:30;10.90;;;5.90;;
67352;SDS011;54238;52.278;21.056;2023-05-10T00:10:59;11.00;;;5.10;;
67352;SDS011;54238;52.278;21.056;2023-05-10T00:13:29;12.20;;;6.10;;
67352;SDS011;54238;52.278;21.056;2023-05-10T00:15:58;11.40;;;5.50;;
67352;SDS011;54238;52.278;21.056;2023-05-10T00:18:27;16.90;;;6.10;;
67352;SDS011;54238;52.278;21.056;2023-05-10T00:20:57;12.90;;;6.30;;
67352;SDS011;54238;52.278;21.056;2023-05-10T00:23:24;17.50;;;6.20;;
67352;SDS011;54238;52.278;21.056;2023-05-10T00:25:54;12.40;;;5.90;;
67352;SDS011;54238;52.278;21.056;2023-05-10T00:28:21;11.90;;;6.00;;
67352;SDS011;54238;52.278;21.056;2023-05-10T00:30:51;9.60;;;5.30;;
67352;SDS011;54238;52.278;21.056;2023-05-10T00:33:25;10.10;;;5.50;;
67352;SDS011;54238;52.278;21.056;2023-05-10T00:35:54;11.70;;;5.40;;
67352;SDS011;54238;52.278;21.056;2023-05-10T00:38:24;12.10;;;5.10;;
67352;SDS011;54238;52.278;21.056;2023-05-10T00:40:53;8.50;;;5.20;;
67352;SDS011;54238;52.278;21.056;2023-05-10T00:43:20;10.80;;;5.10;;
67352;SDS011;54238;52.278;21.056;2023-05-10T00:45:50;8.80;;;4.70;;
67352;SDS011;54238;52.278;21.056;2023-05-10T00:48:20;10.20;;;5.00;;
67352;SDS011;54238;52.278;21.056;2023-05-10T00:50:56;11.20;;;5.40;;
67352;SDS011;54238;52.278;21.056;2023-05-10T00:53:28;9.50;;;4.80;;
67352;SDS011;54238;52.278;21.056;2023-05-10T00:56:01;10.10;;;5.20;;
67352;SDS011;54238;52.278;21.056;2023-05-10T00:58:30;7.20;;;4.80;;
67352;SDS011;54238;52.278;21.056;2023-05-10T01:01:00;10.90;;;5.50;;
67352;SDS011;54238;52.278;21.056;2023-05-10T01:03:31;8.60;;;4.60;;
67352;SDS011;54238;52.278;21.056;2023-05-10T01:06:01;10.20;;;5.30;;
67352;SDS011;54238;52.278;21.056;2023-05-10T01:08:29;9.50;;;5.20;;
67352;SDS011;54238;52.278;21.056;2023-05-10T01:10:59;7.10;;;4.80;;
67352;SDS011;54238;52.278;21.056;2023-05-10T01:13:40;7.30;;;4.50;;
67352;SDS011;54238;52.278;21.056;2023-05-10T01:16:12;10.30;;;5.40;;
67352;SDS011;54238;52.278;21.056;2023-05-10T01:18:42;8.80;;;4.80;;
67352;SDS011;54238;52.278;21.056;2023-05-10T01:21:23;7.70;;;4.80;;
67352;SDS011;54238;52.278;21.056;2023-05-10T01:24:47;9.20;;;4.90;;
67352;SDS011;54238;52.278;21.056;2023-05-10T01:34:20;8.60;;;4.70;;
67352;SDS011;54238;52.278;21.056;2023-05-10T01:37:02;6.90;;;4.30;;
67352;SDS011;54238;52.278;21.056;2023-05-10T01:39:47;8.00;;;4.70;;
67352;SDS011;54238;52.278;21.056;2023-05-10T01:42:36;9.70;;;4.20;;
67352;SDS011;54238;52.278;21.056;2023-05-10T01:45:20;8.20;;;4.20;;
67352;SDS011;54238;52.278;21.056;2023-05-10T01:48:10;11.70;;;5.40;;
67352;SDS011;54238;52.278;21.056;2023-05-10T01:50:42;7.50;;;4.50;;
67352;SDS011;54238;52.278;21.056;2023-05-10T01:53:18;7.20;;;4.40;;
67352;SDS011;54238;52.278;21.056;2023-05-10T01:55:52;10.20;;;4.60;;
67352;SDS011;54238;52.278;21.056;2023-05-10T01:58:30;13.50;;;5.00;;
67352;SDS011;54238;52.278;21.056;2023-05-10T02:01:01;6.10;;;4.10;;
67352;SDS011;54238;52.278;21.056;2023-05-10T02:03:34;8.20;;;4.60;;
67352;SDS011;54238;52.278;21.056;2023-05-10T02:06:06;8.30;;;4.60;;
67352;SDS011;54238;52.278;21.056;2023-05-10T02:08:38;8.10;;;3.90;;
67352;SDS011;54238;52.278;21.056;2023-05-10T02:11:13;7.50;;;4.20;;
67352;SDS011;54238;52.278;21.056;2023-05-10T02:13:46;8.10;;;4.20;;
67352;SDS011;54238;52.278;21.056;2023-05-10T02:16:18;8.50;;;4.50;;
67352;SDS011;54238;52.278;21.056;2023-05-10T02:18:53;8.60;;;4.40;;
67352;SDS011;54238;52.278;21.056;2023-05-10T02:21:25;9.80;;;5.10;;
67352;SDS011;54238;52.278;21.056;2023-05-10T02:23:55;8.50;;;4.20;;
67352;SDS011;54238;52.278;21.056;2023-05-10T02:29:34;9.20;;;4.50;;
67352;SDS011;54238;52.278;21.056;2023-05-10T02:32:04;7.50;;;4.30;;
67352;SDS011;54238;52.278;21.056;2023-05-10T02:34:34;7.80;;;4.60;;
67352;SDS011;54238;52.278;21.056;2023-05-10T02:37:03;7.60;;;4.60;;
67352;SDS011;54238;52.278;21.056;2023-05-10T02:39:36;9.80;;;4.40;;
67352;SDS011;54238;52.278;21.056;2023-05-10T02:42:18;8.50;;;4.50;;
67352;SDS011;54238;52.278;21.056;2023-05-10T02:44:48;12.20;;;5.10;;
67352;SDS011;54238;52.278;21.056;2023-05-10T02:47:24;13.60;;;4.60;;
67352;SDS011;54238;52.278;21.056;2023-05-10T02:50:01;8.20;;;4.50;;
67352;SDS011;54238;52.278;21.056;2023-05-10T02:52:44;8.80;;;4.00;;
67352;SDS011;54238;52.278;21.056;2023-05-10T02:55:21;10.50;;;4.50;;
67352;SDS011;54238;52.278;21.056;2023-05-10T02:58:00;10.70;;;4.90;;
67352;SDS011;54238;52.278;21.056;2023-05-10T03:00:31;9.10;;;4.60;;
67352;SDS011;54238;52.278;21.056;2023-05-10T03:03:01;10.90;;;4.90;;
67352;SDS011;54238;52.278;21.056;2023-05-10T03:05:31;5.20;;;3.50;;
67352;SDS011;54238;52.278;21.056;2023-05-10T03:08:03;9.50;;;4.50;;
67352;SDS011;54238;52.278;21.056;2023-05-10T03:10:38;8.30;;;4.70;;
67352;SDS011;54238;52.278;21.056;2023-05-10T03:16:15;8.90;;;4.60;;
67352;SDS011;54238;52.278;21.056;2023-05-10T03:19:24;7.70;;;4.70;;
67352;SDS011;54238;52.278;21.056;2023-05-10T03:22:31;10.20;;;4.60;;
67352;SDS011;54238;52.278;21.056;2023-05-10T03:25:06;9.70;;;5.00;;
67352;SDS011;54238;52.278;21.056;2023-05-10T03:27:41;10.20;;;4.90;;
67352;SDS011;54238;52.278;21.056;2023-05-10T03:30:13;10.00;;;4.80;;
67352;SDS011;54238;52.278;21.056;2023-05-10T03:32:41;10.40;;;4.70;;
67352;SDS011;54238;52.278;21.056;2023-05-10T03:35:12;10.10;;;5.00;;
67352;SDS011;54238;52.278;21.056;2023-05-10T03:37:41;13.80;;;5.30;;
67352;SDS011;54238;52.278;21.056;2023-05-10T03:40:11;10.80;;;4.70;;
67352;SDS011;54238;52.278;21.056;2023-05-10T03:42:43;9.60;;;4.20;;
67352;SDS011;54238;52.278;21.056;2023-05-10T03:45:13;10.00;;;5.50;;
67352;SDS011;54238;52.278;21.056;2023-05-10T03:47:46;15.10;;;5.30;;
67352;SDS011;54238;52.278;21.056;2023-05-10T03:50:18;9.20;;;4.40;;
67352;SDS011;54238;52.278;21.056;2023-05-10T03:52:50;16.00;;;4.60;;
67352;SDS011;54238;52.278;21.056;2023-05-10T03:55:17;13.70;;;4.40;;
67352;SDS011;54238;52.278;21.056;2023-05-10T03:57:48;10.20;;;5.00;;
67352;SDS011;54238;52.278;21.056;2023-05-10T04:00:16;8.30;;;4.50;;
67352;SDS011;54238;52.278;21.056;2023-05-10T04:02:45;9.90;;;5.10;;
67352;SDS011;54238;52.278;21.056;2023-05-10T04:05:13;7.20;;;4.80;;
67352;SDS011;54238;52.278;21.056;2023-05-10T04:07:40;13.70;;;5.00;;
67352;SDS011;54238;52.278;21.056;2023-05-10T04:10:11;10.50;;;5.10;;
67352;SDS011;54238;52.278;21.056;2023-05-10T04:12:39;8.40;;;5.10;;
67352;SDS011;54238;52.278;21.056;2023-05-10T04:15:10;8.30;;;5.10;;
67352;SDS011;54238;52.278;21.056;2023-05-10T04:17:37;10.00;;;5.10;;
67352;SDS011;54238;52.278;21.056;2023-05-10T04:20:07;10.40;;;5.30;;
67352;SDS011;54238;52.278;21.056;2023-05-10T04:22:38;19.90;;;4.60;;
67352;SDS011;54238;52.278;21.056;2023-05-10T04:25:07;10.20;;;4.50;;
67352;SDS011;54238;52.278;21.056;2023-05-10T04:27:39;7.20;;;4.30;;
67352;SDS011;54238;52.278;21.056;2023-05-10T04:30:09;10.00;;;4.80;;
67352;SDS011;54238;52.278;21.056;2023-05-10T04:32:37;11.10;;;4.70;;
67352;SDS011;54238;52.278;21.056;2023-05-10T04:35:07;10.50;;;4.60;;
67352;SDS011;54238;52.278;21.056;2023-05-10T04:37:37;11.00;;;4.50;;
67352;SDS011;54238;52.278;21.056;2023-05-10T04:40:08;7.20;;;4.60;;
67352;SDS011;54238;52.278;21.056;2023-05-10T04:42:43;16.40;;;5.10;;
67352;SDS011;54238;52.278;21.056;2023-05-10T04:45:11;10.70;;;5.20;;
67352;SDS011;54238;52.278;21.056;2023-05-10T04:47:41;8.80;;;3.90;;
67352;SDS011;54238;52.278;21.056;2023-05-10T04:50:11;13.00;;;3.90;;
67352;SDS011;54238;52.278;21.056;2023-05-10T04:52:43;13.20;;;4.50;;
67352;SDS011;54238;52.278;21.056;2023-05-10T04:55:12;9.10;;;3.90;;
67352;SDS011;54238;52.278;21.056;2023-05-10T04:57:40;10.20;;;4.50;;
67352;SDS011;54238;52.278;21.056;2023-05-10T05:00:09;13.40;;;4.80;;
67352;SDS011;54238;52.278;21.056;2023-05-10T05:02:41;18.20;;;4.40;;
67352;SDS011;54238;52.278;21.056;2023-05-10T05:05:10;10.20;;;4.30;;
67352;SDS011;54238;52.278;21.056;2023-05-10T05:07:42;9.40;;;4.70;;
67352;SDS011;54238;52.278;21.056;2023-05-10T05:10:09;8.00;;;4.20;;
67352;SDS011;54238;52.278;21.056;2023-05-10T05:12:41;13.20;;;4.90;;
67352;SDS011;54238;52.278;21.056;2023-05-10T05:15:45;13.80;;;4.90;;
67352;SDS011;54238;52.278;21.056;2023-05-10T05:18:19;8.60;;;4.00;;
67352;SDS011;54238;52.278;21.056;2023-05-10T05:20:53;7.70;;;3.70;;
67352;SDS011;54238;52.278;21.056;2023-05-10T05:23:22;19.10;;;3.90;;
67352;SDS011;54238;52.278;21.056;2023-05-10T05:25:56;12.50;;;4.40;;
67352;SDS011;54238;52.278;21.056;2023-05-10T05:28:26;7.90;;;3.60;;
67352;SDS011;54238;52.278;21.056;2023-05-10T05:30:59;10.10;;;4.20;;
67352;SDS011;54238;52.278;21.056;2023-05-10T05:33:28;8.50;;;3.70;;
67352;SDS011;54238;52.278;21.056;2023-05-10T05:36:00;15.20;;;4.30;;
67352;SDS011;54238;52.278;21.056;2023-05-10T05:38:33;9.30;;;3.60;;
67352;SDS011;54238;52.278;21.056;2023-05-10T05:41:00;11.80;;;4.50;;
67352;SDS011;54238;52.278;21.056;2023-05-10T05:43:28;8.10;;;3.90;;
67352;SDS011;54238;52.278;21.056;2023-05-10T05:45:57;11.20;;;3.70;;
67352;SDS011;54238;52.278;21.056;2023-05-10T05:48:30;13.00;;;4.10;;
67352;SDS011;54238;52.278;21.056;2023-05-10T05:50:59;15.90;;;4.20;;
67352;SDS011;54238;52.278;21.056;2023-05-10T05:53:27;14.90;;;4.30;;
67352;SDS011;54238;52.278;21.056;2023-05-10T05:55:56;10.70;;;3.60;;
67352;SDS011;54238;52.278;21.056;2023-05-10T05:58:26;8.70;;;4.00;;
67352;SDS011;54238;52.278;21.056;2023-05-10T06:00:57;16.00;;;3.80;;
67352;SDS011;54238;52.278;21.056;2023-05-10T06:03:27;8.30;;;3.60;;
67352;SDS011;54238;52.278;21.056;2023-05-10T06:05:54;11.80;;;4.30;;
67352;SDS011;54238;52.278;21.056;2023-05-10T06:08:24;9.40;;;3.50;;
67352;SDS011;54238;52.278;21.056;2023-05-10T06:10:54;9.10;;;3.40;;
67352;SDS011;54238;52.278;21.056;2023-05-10T06:13:24;9.90;;;4.20;;
67352;SDS011;54238;52.278;21.056;2023-05-10T06:15:53;7.20;;;4.00;;
67352;SDS011;54238;52.278;21.056;2023-05-10T06:18:21;7.10;;;3.70;;
67352;SDS011;54238;52.278;21.056;2023-05-10T06:20:49;5.70;;;3.30;;
67352;SDS011;54238;52.278;21.056;2023-05-10T06:23:19;8.80;;;3.60;;
67352;SDS011;54238;52.278;21.056;2023-05-10T06:25:49;6.40;;;3.00;;
67352;SDS011;54238;52.278;21.056;2023-05-10T06:28:16;9.50;;;3.10;;
67352;SDS011;54238;52.278;21.056;2023-05-10T06:30:44;8.10;;;3.10;;
67352;SDS011;54238;52.278;21.056;2023-05-10T06:33:14;9.80;;;3.40;;
67352;SDS011;54238;52.278;21.056;2023-05-10T06:35:46;10.60;;;3.30;;
67352;SDS011;54238;52.278;21.056;2023-05-10T06:38:15;9.90;;;3.60;;
67352;SDS011;54238;52.278;21.056;2023-05-10T06:40:45;12.60;;;3.30;;
67352;SDS011;54238;52.278;21.056;2023-05-10T06:43:14;10.40;;;3.70;;
67352;SDS011;54238;52.278;21.056;2023-05-10T06:45:41;12.40;;;3.30;;
67352;SDS011;54238;52.278;21.056;2023-05-10T06:48:11;6.00;;;3.00;;
67352;SDS011;54238;52.278;21.056;2023-05-10T06:50:42;8.90;;;3.00;;
67352;SDS011;54238;52.278;21.056;2023-05-10T06:53:14;9.50;;;3.70;;
67352;SDS011;54238;52.278;21.056;2023-05-10T06:55:45;8.20;;;3.20;;
67352;SDS011;54238;52.278;21.056;2023-05-10T06:58:19;3.90;;;2.50;;
67352;SDS011;54238;52.278;21.056;2023-05-10T07:00:51;5.00;;;3.00;;
67352;SDS011;54238;52.278;21.056;2023-05-10T07:03:22;8.70;;;3.20;;
67352;SDS011;54238;52.278;21.056;2023-05-10T07:05:54;11.50;;;2.70;;
67352;SDS011;54238;52.278;21.056;2023-05-10T07:08:38;5.40;;;2.70;;
67352;SDS011;54238;52.278;21.056;2023-05-10T07:11:08;5.80;;;3.00;;
67352;SDS011;54238;52.278;21.056;2023-05-10T07:13:38;6.00;;;3.20;;
67352;SDS011;54238;52.278;21.056;2023-05-10T07:16:08;5.50;;;2.40;;
67352;SDS011;54238;52.278;21.056;2023-05-10T07:18:38;8.50;;;2.80;;
67352;SDS011;54238;52.278;21.056;2023-05-10T07:21:07;6.60;;;2.30;;
67352;SDS011;54238;52.278;21.056;2023-05-10T07:23:39;8.30;;;2.40;;
67352;SDS011;54238;52.278;21.056;2023-05-10T07:26:09;7.40;;;2.80;;
67352;SDS011;54238;52.278;21.056;2023-05-10T07:28:37;9.80;;;2.80;;
67352;SDS011;54238;52.278;21.056;2023-05-10T07:31:10;7.20;;;2.40;;
67352;SDS011;54238;52.278;21.056;2023-05-10T07:33:42;8.10;;;2.30;;
67352;SDS011;54238;52.278;21.056;2023-05-10T07:38:46;3.80;;;2.20;;
67352;SDS011;54238;52.278;21.056;2023-05-10T07:41:13;11.00;;;2.60;;
67352;SDS011;54238;52.278;21.056;2023-05-10T07:43:41;11.50;;;3.60;;
67352;SDS011;54238;52.278;21.056;2023-05-10T07:46:13;7.00;;;2.90;;
67352;SDS011;54238;52.278;21.056;2023-05-10T07:48:40;12.70;;;3.00;;
67352;SDS011;54238;52.278;21.056;2023-05-10T07:51:14;8.60;;;2.80;;
67352;SDS011;54238;52.278;21.056;2023-05-10T07:53:44;4.70;;;2.80;;
67352;SDS011;54238;52.278;21.056;2023-05-10T07:56:21;7.90;;;2.20;;
67352;SDS011;54238;52.278;21.056;2023-05-10T07:59:03;9.40;;;2.70;;
67352;SDS011;54238;52.278;21.056;2023-05-10T08:01:34;8.70;;;2.20;;
67352;SDS011;54238;52.278;21.056;2023-05-10T08:04:02;7.70;;;2.20;;
67352;SDS011;54238;52.278;21.056;2023-05-10T08:06:29;11.50;;;2.60;;
67352;SDS011;54238;52.278;21.056;2023-05-10T08:09:01;4.40;;;2.40;;
67352;SDS011;54238;52.278;21.056;2023-05-10T08:11:31;11.10;;;2.50;;
67352;SDS011;54238;52.278;21.056;2023-05-10T08:14:01;8.40;;;2.40;;
67352;SDS011;54238;52.278;21.056;2023-05-10T08:16:31;8.30;;;3.00;;
67352;SDS011;54238;52.278;21.056;2023-05-10T08:19:03;14.70;;;2.70;;
67352;SDS011;54238;52.278;21.056;2023-05-10T08:21:32;8.90;;;2.80;;
67352;SDS011;54238;52.278;21.056;2023-05-10T08:23:59;8.90;;;2.50;;
67352;SDS011;54238;52.278;21.056;2023-05-10T08:26:32;4.60;;;2.30;;
67352;SDS011;54238;52.278;21.056;2023-05-10T08:29:02;7.70;;;2.50;;
67352;SDS011;54238;52.278;21.056;2023-05-10T08:31:36;6.50;;;2.40;;
67352;SDS011;54238;52.278;21.056;2023-05-10T08:34:08;6.90;;;2.60;;
67352;SDS011;54238;52.278;21.056;2023-05-10T08:36:35;7.20;;;2.30;;
67352;SDS011;54238;52.278;21.056;2023-05-10T08:39:05;10.50;;;3.10;;
67352;SDS011;54238;52.278;21.056;2023-05-10T08:41:35;9.00;;;2.30;;
67352;SDS011;54238;52.278;21.056;2023-05-10T08:44:07;9.60;;;2.40;;
67352;SDS011;54238;52.278;21.056;2023-05-10T08:46:38;7.00;;;2.40;;
67352;SDS011;54238;52.278;21.056;2023-05-10T08:49:16;9.00;;;2.20;;
67352;SDS011;54238;52.278;21.056;2023-05-10T08:51:57;11.00;;;3.20;;
67352;SDS011;54238;52.278;21.056;2023-05-10T08:54:26;7.90;;;2.50;;
67352;SDS011;54238;52.278;21.056;2023-05-10T08:56:53;6.00;;;2.30;;
67352;SDS011;54238;52.278;21.056;2023-05-10T08:59:22;5.20;;;2.10;;
67352;SDS011;54238;52.278;21.056;2023-05-10T09:01:55;5.50;;;2.30;;
67352;SDS011;54238;52.278;21.056;2023-05-10T09:04:27;3.10;;;2.10;;
67352;SDS011;54238;52.278;21.056;2023-05-10T09:06:58;7.20;;;2.30;;
67352;SDS011;54238;52.278;21.056;2023-05-10T09:09:29;8.90;;;2.80;;
67352;SDS011;54238;52.278;21.056;2023-05-10T09:12:01;6.00;;;2.40;;
67352;SDS011;54238;52.278;21.056;2023-05-10T09:14:33;6.00;;;2.30;;
67352;SDS011;54238;52.278;21.056;2023-05-10T09:22:27;12.70;;;2.60;;
67352;SDS011;54238;52.278;21.056;2023-05-10T09:25:15;5.90;;;2.50;;
67352;SDS011;54238;52.278;21.056;2023-05-10T09:27:47;4.60;;;2.20;;
67352;SDS011;54238;52.278;21.056;2023-05-10T09:30:26;7.60;;;2.60;;
67352;SDS011;54238;52.278;21.056;2023-05-10T09:33:00;5.50;;;2.50;;
67352;SDS011;54238;52.278;21.056;2023-05-10T09:35:29;3.70;;;2.20;;
67352;SDS011;54238;52.278;21.056;2023-05-10T09:38:03;7.10;;;2.60;;
67352;SDS011;54238;52.278;21.056;2023-05-10T09:40:34;8.50;;;2.20;;
67352;SDS011;54238;52.278;21.056;2023-05-10T09:43:06;7.70;;;2.60;;
67352;SDS011;54238;52.278;21.056;2023-05-10T09:45:37;12.70;;;2.70;;
67352;SDS011;54238;52.278;21.056;2023-05-10T09:48:05;8.60;;;2.60;;
67352;SDS011;54238;52.278;21.056;2023-05-10T09:50:39;5.50;;;2.20;;
67352;SDS011;54238;52.278;21.056;2023-05-10T09:53:08;5.10;;;2.20;;
67352;SDS011;54238;52.278;21.056;2023-05-10T09:55:40;4.40;;;2.40;;
67352;SDS011;54238;52.278;21.056;2023-05-10T09:58:16;6.40;;;2.70;;
67352;SDS011;54238;52.278;21.056;2023-05-10T10:00:46;8.10;;;2.30;;
67352;SDS011;54238;52.278;21.056;2023-05-10T10:03:21;8.10;;;2.80;;
67352;SDS011;54238;52.278;21.056;2023-05-10T10:05:53;7.50;;;2.40;;
67352;SDS011;54238;52.278;21.056;2023-05-10T10:08:29;7.90;;;2.00;;
67352;SDS011;54238;52.278;21.056;2023-05-10T10:10:57;6.60;;;2.50;;
67352;SDS011;54238;52.278;21.056;2023-05-10T10:13:26;13.40;;;3.50;;
67352;SDS011;54238;52.278;21.056;2023-05-10T10:16:04;6.40;;;2.20;;
67352;SDS011;54238;52.278;21.056;2023-05-10T10:18:31;9.10;;;2.40;;
67352;SDS011;54238;52.278;21.056;2023-05-10T10:21:33;10.20;;;2.80;;
67352;SDS011;54238;52.278;21.056;2023-05-10T10:24:07;7.30;;;2.50;;
67352;SDS011;54238;52.278;21.056;2023-05-10T10:26:37;8.90;;;2.30;;
67352;SDS011;54238;52.278;21.056;2023-05-10T10:29:25;8.50;;;2.10;;
67352;SDS011;54238;52.278;21.056;2023-05-10T10:32:46;5.10;;;2.00;;
67352;SDS011;54238;52.278;21.056;2023-05-10T10:35:17;9.70;;;2.50;;
67352;SDS011;54238;52.278;21.056;2023-05-10T10:37:49;5.70;;;2.30;;
67352;SDS011;54238;52.278;21.056;2023-05-10T10:40:33;7.90;;;2.60;;
67352;SDS011;54238;52.278;21.056;2023-05-10T10:43:26;4.10;;;2.60;;
67352;SDS011;54238;52.278;21.056;2023-05-10T10:46:10;2.70;;;1.90;;
67352;SDS011;54238;52.278;21.056;2023-05-10T11:00:39;7.00;;;2.30;;
67352;SDS011;54238;52.278;21.056;2023-05-10T11:03:12;11.50;;;2.20;;
67352;SDS011;54238;52.278;21.056;2023-05-10T11:05:49;6.20;;;2.80;;
67352;SDS011;54238;52.278;21.056;2023-05-10T11:08:30;3.30;;;2.40;;
67352;SDS011;54238;52.278;21.056;2023-05-10T11:11:06;7.90;;;2.20;;
67352;SDS011;54238;52.278;21.056;2023-05-10T11:13:45;7.60;;;2.50;;
67352;SDS011;54238;52.278;21.056;2023-05-10T11:16:23;8.40;;;3.00;;
67352;SDS011;54238;52.278;21.056;2023-05-10T11:19:05;6.40;;;2.30;;
67352;SDS011;54238;52.278;21.056;2023-05-10T11:24:18;5.90;;;2.20;;
67352;SDS011;54238;52.278;21.056;2023-05-10T11:26:50;6.80;;;2.50;;
67352;SDS011;54238;52.278;21.056;2023-05-10T11:29:20;5.30;;;2.20;;
67352;SDS011;54238;52.278;21.056;2023-05-10T11:31:57;6.90;;;2.30;;
67352;SDS011;54238;52.278;21.056;2023-05-10T11:34:32;9.40;;;2.40;;
67352;SDS011;54238;52.278;21.056;2023-05-10T11:37:04;9.90;;;2.70;;
67352;SDS011;54238;52.278;21.056;2023-05-10T11:39:31;11.20;;;3.10;;
67352;SDS011;54238;52.278;21.056;2023-05-10T11:42:02;12.40;;;2.40;;
67352;SDS011;54238;52.278;21.056;2023-05-10T11:44:32;8.50;;;2.40;;
67352;SDS011;54238;52.278;21.056;2023-05-10T11:47:02;5.80;;;2.40;;
67352;SDS011;54238;52.278;21.056;2023-05-10T11:49:34;3.90;;;1.90;;
67352;SDS011;54238;52.278;21.056;2023-05-10T11:52:07;8.30;;;2.20;;
67352;SDS011;54238;52.278;21.056;2023-05-10T11:54:37;10.90;;;2.40;;
67352;SDS011;54238;52.278;21.056;2023-05-10T11:57:13;8.20;;;2.40;;
67352;SDS011;54238;52.278;21.056;2023-05-10T11:59:41;5.80;;;2.30;;
67352;SDS011;54238;52.278;21.056;2023-05-10T12:02:09;8.00;;;2.50;;
67352;SDS011;54238;52.278;21.056;2023-05-10T12:04:41;8.20;;;2.70;;
67352;SDS011;54238;52.278;21.056;2023-05-10T12:07:13;6.60;;;2.50;;
67352;SDS011;54238;52.278;21.056;2023-05-10T12:09:44;7.50;;;2.70;;
67352;SDS011;54238;52.278;21.056;2023-05-10T12:12:20;8.20;;;2.60;;
67352;SDS011;54238;52.278;21.056;2023-05-10T12:14:50;4.70;;;2.40;;
67352;SDS011;54238;52.278;21.056;2023-05-10T12:17:19;6.10;;;2.80;;
67352;SDS011;54238;52.278;21.056;2023-05-10T12:19:46;5.60;;;2.10;;
67352;SDS011;54238;52.278;21.056;2023-05-10T12:22:20;5.80;;;2.60;;
67352;SDS011;54238;52.278;21.056;2023-05-10T12:24:47;4.70;;;2.50;;
67352;SDS011;54238;52.278;21.056;2023-05-10T12:27:21;7.80;;;2.70;;
67352;SDS011;54238;52.278;21.056;2023-05-10T12:29:48;9.80;;;2.40;;
67352;SDS011;54238;52.278;21.056;2023-05-10T12:32:19;4.20;;;2.60;;
67352;SDS011;54238;52.278;21.056;2023-05-10T12:34:46;9.30;;;2.60;;
67352;SDS011;54238;52.278;21.056;2023-05-10T12:37:16;4.30;;;2.60;;
67352;SDS011;54238;52.278;21.056;2023-05-10T12:39:45;6.30;;;2.50;;
67352;SDS011;54238;52.278;21.056;2023-05-10T12:42:12;4.70;;;2.50;;
67352;SDS011;54238;52.278;21.056;2023-05-10T12:44:44;4.20;;;2.40;;
67352;SDS011;54238;52.278;21.056;2023-05-10T12:47:16;6.10;;;2.30;;
67352;SDS011;54238;52.278;21.056;2023-05-10T12:49:48;9.70;;;2.50;;
67352;SDS011;54238;52.278;21.056;2023-05-10T12:52:17;9.60;;;2.60;;
67352;SDS011;54238;52.278;21.056;2023-05-10T12:54:47;5.00;;;2.60;;
67352;SDS011;54238;52.278;21.056;2023-05-10T12:57:16;7.90;;;2.30;;
67352;SDS011;54238;52.278;21.056;2023-05-10T12:59:48;7.10;;;2.30;;
67352;SDS011;54238;52.278;21.056;2023-05-10T13:02:20;4.20;;;2.20;;
67352;SDS011;54238;52.278;21.056;2023-05-10T13:04:52;7.20;;;2.20;;
67352;SDS011;54238;52.278;21.056;2023-05-10T13:07:22;11.30;;;2.40;;
67352;SDS011;54238;52.278;21.056;2023-05-10T13:09:51;7.10;;;2.50;;
67352;SDS011;54238;52.278;21.056;2023-05-10T13:12:25;9.10;;;2.60;;
67352;SDS011;54238;52.278;21.056;2023-05-10T13:14:55;5.20;;;2.50;;
67352;SDS011;54238;52.278;21.056;2023-05-10T13:17:28;5.40;;;2.50;;
67352;SDS011;54238;52.278;21.056;2023-05-10T13:20:01;5.60;;;2.30;;
67352;SDS011;54238;52.278;21.056;2023-05-10T13:22:29;8.10;;;2.60;;
67352;SDS011;54238;52.278;21.056;2023-05-10T13:25:01;5.90;;;2.50;;
67352;SDS011;54238;52.278;21.056;2023-05-10T13:27:31;5.50;;;2.80;;
67352;SDS011;54238;52.278;21.056;2023-05-10T13:30:01;6.20;;;2.40;;
67352;SDS011;54238;52.278;21.056;2023-05-10T13:32:35;11.40;;;2.80;;
67352;SDS011;54238;52.278;21.056;2023-05-10T13:35:06;6.00;;;2.50;;
67352;SDS011;54238;52.278;21.056;2023-05-10T13:37:44;6.20;;;2.60;;
67352;SDS011;54238;52.278;21.056;2023-05-10T13:40:12;6.00;;;2.60;;
67352;SDS011;54238;52.278;21.056;2023-05-10T13:42:40;5.30;;;2.20;;
67352;SDS011;54238;52.278;21.056;2023-05-10T13:45:10;11.10;;;2.80;;
67352;SDS011;54238;52.278;21.056;2023-05-10T13:47:39;5.80;;;2.60;;
67352;SDS011;54238;52.278;21.056;2023-05-10T13:50:06;5.70;;;2.30;;
67352;SDS011;54238;52.278;21.056;2023-05-10T13:52:36;4.10;;;2.10;;
67352;SDS011;54238;52.278;21.056;2023-05-10T13:55:07;4.70;;;2.30;;
67352;SDS011;54238;52.278;21.056;2023-05-10T13:57:39;4.80;;;2.30;;
67352;SDS011;54238;52.278;21.056;2023-05-10T14:00:06;12.40;;;2.30;;
67352;SDS011;54238;52.278;21.056;2023-05-10T14:02:39;6.00;;;2.50;;
67352;SDS011;54238;52.278;21.056;2023-05-10T14:05:09;8.50;;;2.50;;
67352;SDS011;54238;52.278;21.056;2023-05-10T14:07:37;5.70;;;2.30;;
67352;SDS011;54238;52.278;21.056;2023-05-10T14:10:08;8.60;;;2.30;;
67352;SDS011;54238;52.278;21.056;2023-05-10T14:12:35;7.40;;;2.10;;
67352;SDS011;54238;52.278;21.056;2023-05-10T14:15:06;8.10;;;2.30;;
67352;SDS011;54238;52.278;21.056;2023-05-10T14:17:38;10.30;;;2.30;;
67352;SDS011;54238;52.278;21.056;2023-05-10T14:20:07;5.80;;;2.40;;
67352;SDS011;54238;52.278;21.056;2023-05-10T14:22:35;3.90;;;2.10;;
67352;SDS011;54238;52.278;21.056;2023-05-10T14:25:05;5.20;;;2.00;;
67352;SDS011;54238;52.278;21.056;2023-05-10T14:27:35;6.20;;;2.20;;
67352;SDS011;54238;52.278;21.056;2023-05-10T14:30:05;5.00;;;2.10;;
67352;SDS011;54238;52.278;21.056;2023-05-10T14:32:36;9.90;;;2.30;;
67352;SDS011;54238;52.278;21.056;2023-05-10T14:35:07;8.30;;;2.20;;
67352;SDS011;54238;52.278;21.056;2023-05-10T14:37:38;6.20;;;2.20;;
67352;SDS011;54238;52.278;21.056;2023-05-10T14:40:08;3.10;;;2.10;;
67352;SDS011;54238;52.278;21.056;2023-05-10T14:42:36;3.90;;;2.20;;
67352;SDS011;54238;52.278;21.056;2023-05-10T14:45:04;3.80;;;2.20;;
67352;SDS011;54238;52.278;21.056;2023-05-10T14:47:34;7.50;;;2.20;;
67352;SDS011;54238;52.278;21.056;2023-05-10T14:50:04;6.70;;;2.30;;
67352;SDS011;54238;52.278;21.056;2023-05-10T14:52:37;4.30;;;1.90;;
67352;SDS011;54238;52.278;21.056;2023-05-10T14:55:04;5.80;;;2.30;;
67352;SDS011;54238;52.278;21.056;2023-05-10T14:57:35;7.40;;;2.20;;
67352;SDS011;54238;52.278;21.056;2023-05-10T15:00:05;3.70;;;2.40;;
67352;SDS011;54238;52.278;21.056;2023-05-10T15:02:34;6.80;;;2.40;;
67352;SDS011;54238;52.278;21.056;2023-05-10T15:05:04;10.50;;;2.60;;
67352;SDS011;54238;52.278;21.056;2023-05-10T15:07:36;4.70;;;2.00;;
67352;SDS011;54238;52.278;21.056;2023-05-10T15:10:06;8.20;;;2.10;;
67352;SDS011;54238;52.278;21.056;2023-05-10T15:15:07;6.70;;;2.40;;
67352;SDS011;54238;52.278;21.056;2023-05-10T15:17:40;7.20;;;2.60;;
67352;SDS011;54238;52.278;21.056;2023-05-10T15:20:13;4.50;;;2.30;;
67352;SDS011;54238;52.278;21.056;2023-05-10T15:22:40;2.70;;;1.90;;
67352;SDS011;54238;52.278;21.056;2023-05-10T15:25:14;5.80;;;2.00;;
67352;SDS011;54238;52.278;21.056;2023-05-10T15:27:44;4.40;;;2.00;;
67352;SDS011;54238;52.278;21.056;2023-05-10T15:30:14;5.30;;;2.50;;
67352;SDS011;54238;52.278;21.056;2023-05-10T15:32:44;14.00;;;2.30;;
67352;SDS011;54238;52.278;21.056;2023-05-10T15:35:13;4.10;;;2.30;;
67352;SDS011;54238;52.278;21.056;2023-05-10T15:37:41;5.60;;;2.00;;